Terminal Aerodrome Forecast
Issued by NWS

Home | Current Version | Previous Version | Text Only | Print | Product List | Glossary On
Versions: 1 2 3 4 5 6 7 8 9 10 11 12 13 14 15 16 17 18 19
000
FTAK31 PAJN 050526
TAFAPG
TAF
PAPG 050526Z 0506/0606 00000KT P6SM SCT040 BKN080
      TEMPO 0512/0515 3/4SM BR BKN003
     FM051800 06005KT P6SM SCT025 BKN060
     FM060400 VRB04KT P6SM SCT025 BKN060=

USA.gov is the U.S. government's official web portal to all federal, state and local government web resources and services.